Time;durP1;ratioP1;P1;durP2;ratioP2;P2;SDS_P1;SDS_P2;PMS_P1;PMS_P2;Temp;Humidity;BMP_temperature;BMP_pressure;BME280_temperature;BME280_humidity;BME280_pressure;Samples;Min_cycle;Max_cycle;Signal;HPM_P1;HPM_P2
2020/12/18 00:01:41;;;;;;;35.73;17.40;;;;;;;4.24;78.07;102395.58;1801909;79;25727;-56
2020/12/18 00:04:15;;;;;;;35.10;17.32;;;;;;;4.22;78.03;102399.61;1801937;79;25730;-56
2020/12/18 00:06:44;;;;;;;33.35;16.95;;;;;;;4.17;77.79;102396.25;1801768;79;25664;-56
2020/12/18 00:09:12;;;;;;;36.80;17.67;;;;;;;4.19;77.66;102397.52;1801987;79;25672;-56
2020/12/18 00:11:40;;;;;;;38.28;17.27;;;;;;;4.18;77.74;102402.00;1801816;79;28364;-56
2020/12/18 00:14:08;;;;;;;29.42;16.17;;;;;;;4.22;77.70;102396.95;1801821;79;25661;-56
2020/12/18 00:16:36;;;;;;;33.18;16.02;;;;;;;4.23;77.00;102401.83;1801905;79;25681;-57
2020/12/18 00:19:04;;;;;;;33.33;15.60;;;;;;;4.18;76.79;102398.45;1801702;79;25703;-56
2020/12/18 00:21:32;;;;;;;34.10;16.95;;;;;;;4.12;76.78;102396.89;1801776;79;26328;-56
2020/12/18 00:24:00;;;;;;;31.07;16.55;;;;;;;4.10;76.79;102388.08;1801906;79;28854;-56
2020/12/18 00:26:35;;;;;;;37.28;17.07;;;;;;;4.07;76.77;102391.73;1799005;78;26012;-56
2020/12/18 00:29:04;;;;;;;32.85;17.37;;;;;;;4.05;76.88;102388.69;1799856;79;25649;-57
2020/12/18 00:31:32;;;;;;;35.48;16.82;;;;;;;4.05;76.91;102390.02;1783359;80;25507;-56
2020/12/18 00:34:00;;;;;;;38.00;18.25;;;;;;;4.03;76.79;102380.77;1793937;79;26225;-56
2020/12/18 00:36:28;;;;;;;32.98;16.65;;;;;;;4.03;76.91;102386.56;1796791;79;26779;-56
2020/12/18 00:38:56;;;;;;;31.27;16.95;;;;;;;4.02;76.74;102389.67;1782254;79;25882;-56
2020/12/18 00:41:24;;;;;;;29.95;16.75;;;;;;;3.96;76.77;102384.57;1778177;79;25593;-56
2020/12/18 00:43:52;;;;;;;37.90;17.17;;;;;;;3.97;76.90;102384.98;1770927;79;25695;-56
2020/12/18 00:46:20;;;;;;;30.55;16.27;;;;;;;3.98;76.98;102389.83;1770426;79;25641;-56
2020/12/18 00:48:48;;;;;;;31.55;15.45;;;;;;;3.98;77.15;102391.16;1770744;79;27536;-56
2020/12/18 00:51:18;;;;;;;32.65;15.63;;;;;;;4.01;77.59;102385.74;1786782;78;26076;-56
2020/12/18 00:53:47;;;;;;;31.95;16.12;;;;;;;4.03;77.48;102387.90;1770308;79;25641;-56
2020/12/18 00:56:15;;;;;;;31.93;15.75;;;;;;;4.06;77.78;102388.66;1793602;79;26105;-56
2020/12/18 00:58:45;;;;;;;31.85;15.23;;;;;;;4.13;77.92;102383.95;1770087;81;26095;-56
2020/12/18 01:01:14;;;;;;;30.92;15.28;;;;;;;4.22;78.08;102379.63;1770112;81;27598;-56
2020/12/18 01:03:43;;;;;;;30.12;15.45;;;;;;;4.23;77.46;102384.52;1770607;79;26136;-57
2020/12/18 01:06:14;;;;;;;32.03;15.55;;;;;;;4.22;77.15;102379.63;1779426;79;25679;-57
2020/12/18 01:08:56;;;;;;;30.75;16.12;;;;;;;4.29;77.40;102380.28;1819948;78;25775;-55
2020/12/18 01:11:25;;;;;;;33.35;16.05;;;;;;;4.28;77.63;102377.69;1789951;79;25619;-55
2020/12/18 01:13:54;;;;;;;34.35;16.42;;;;;;;4.34;77.63;102371.69;1805154;79;28908;-55
2020/12/18 01:16:22;;;;;;;29.70;16.02;;;;;;;4.37;77.44;102368.03;1805474;79;25630;-55
2020/12/18 01:18:52;;;;;;;33.45;16.90;;;;;;;4.38;76.83;102375.95;1801848;79;25669;-55
2020/12/18 01:21:23;;;;;;;30.60;15.68;;;;;;;4.37;76.47;102370.22;1773192;79;25701;-56
2020/12/18 01:23:50;;;;;;;34.98;15.68;;;;;;;4.33;76.58;102373.05;1804813;79;25731;-55
2020/12/18 01:26:19;;;;;;;28.45;14.47;;;;;;;4.32;76.48;102372.20;1829391;78;28430;-55
2020/12/18 01:28:47;;;;;;;33.92;17.42;;;;;;;4.29;76.05;102372.77;1757271;81;25814;-57
2020/12/18 01:31:15;;;;;;;34.60;16.35;;;;;;;4.25;76.37;102368.47;1753681;80;25732;-57
2020/12/18 01:33:44;;;;;;;31.33;15.70;;;;;;;4.23;76.24;102371.20;1727219;81;26146;-57
2020/12/18 01:36:14;;;;;;;31.82;16.25;;;;;;;4.22;76.21;102369.45;1725704;83;25860;-57
2020/12/18 01:38:43;;;;;;;31.85;17.10;;;;;;;4.19;76.36;102368.22;1727168;81;28564;-57
2020/12/18 01:41:12;;;;;;;34.08;15.90;;;;;;;4.17;76.31;102367.43;1727113;81;25728;-57
2020/12/18 01:43:40;;;;;;;36.40;16.45;;;;;;;4.15;76.08;102367.94;1727251;81;25668;-57
2020/12/18 01:46:13;;;;;;;32.25;16.32;;;;;;;4.12;76.14;102362.27;1727109;83;26126;-57
2020/12/18 01:48:44;;;;;;;34.85;17.77;;;;;;;4.11;75.64;102363.19;1756728;81;25506;-58
2020/12/18 01:51:13;;;;;;;31.10;15.63;;;;;;;4.04;75.83;102364.30;1748296;81;28500;-57
2020/12/18 01:53:44;;;;;;;28.55;16.25;;;;;;;4.04;75.99;102362.98;1756953;81;25738;-57
2020/12/18 01:56:14;;;;;;;32.42;16.30;;;;;;;4.00;75.82;102370.69;1756437;81;25478;-57
2020/12/18 01:58:46;;;;;;;34.78;15.15;;;;;;;3.99;76.30;102372.94;1732860;81;25709;-57
2020/12/18 02:01:15;;;;;;;33.78;14.35;;;;;;;4.00;76.43;102373.34;1726428;81;25777;-57
2020/12/18 02:04:01;;;;;;;32.63;15.43;;;;;;;4.07;76.38;102369.09;1807351;78;25591;-56
2020/12/18 02:06:35;;;;;;;31.45;13.95;;;;;;;4.05;76.54;102372.70;1774543;80;25728;-56
2020/12/18 02:09:05;;;;;;;32.95;15.65;;;;;;;4.04;76.51;102371.85;1787289;79;27610;-56
2020/12/18 02:11:38;;;;;;;29.13;15.37;;;;;;;4.09;76.66;102375.69;1812830;79;26086;-55
2020/12/18 02:14:12;;;;;;;29.20;15.50;;;;;;;4.10;76.83;102375.20;1812642;79;25506;-56
2020/12/18 02:16:41;;;;;;;26.52;13.08;;;;;;;4.10;75.90;102372.55;1813912;79;25591;-56
2020/12/18 02:19:14;;;;;;;28.87;15.65;;;;;;;4.05;76.12;102368.27;1800894;79;25732;-57
2020/12/18 02:21:43;;;;;;;28.00;14.03;;;;;;;4.05;76.39;102374.04;1813279;79;28540;-58
2020/12/18 02:24:25;;;;;;;29.55;14.83;;;;;;;4.04;76.27;102372.30;1809600;79;25667;-56
2020/12/18 02:26:55;;;;;;;26.82;13.78;;;;;;;4.06;76.32;102365.13;1803566;79;26286;-55
2020/12/18 02:29:24;;;;;;;26.00;13.75;;;;;;;4.07;76.37;102362.44;1781804;79;25717;-56
2020/12/18 02:31:53;;;;;;;31.75;15.10;;;;;;;4.11;76.39;102369.84;1802730;79;25642;-55
2020/12/18 02:34:29;;;;;;;32.33;15.45;;;;;;;4.15;76.79;102367.94;1780158;80;27264;-56
2020/12/18 02:36:59;;;;;;;31.57;16.02;;;;;;;4.21;76.69;102372.56;1781042;79;25453;-55
2020/12/18 02:39:29;;;;;;;34.18;14.93;;;;;;;4.26;76.69;102370.20;1781421;80;25477;-56
2020/12/18 02:41:59;;;;;;;29.10;14.63;;;;;;;4.21;75.86;102375.23;1803769;79;25654;-55
2020/12/18 02:44:28;;;;;;;30.00;15.15;;;;;;;4.10;75.51;102365.44;1805879;78;26560;-55
2020/12/18 02:47:06;;;;;;;33.75;14.58;;;;;;;4.12;75.14;102368.04;1828910;78;25576;-57
2020/12/18 02:49:35;;;;;;;26.60;14.75;;;;;;;4.01;74.51;102373.28;1774062;79;25645;-57
2020/12/18 02:52:05;;;;;;;28.42;13.88;;;;;;;3.91;74.63;102376.74;1781961;79;27535;-57
2020/12/18 02:54:52;;;;;;;29.07;14.78;;;;;;;3.85;74.74;102372.97;1805023;79;25432;-57
2020/12/18 02:57:49;;;;;;;31.50;17.77;;;;;;;3.85;75.07;102374.75;1779310;78;32469;-57
2020/12/18 03:00:19;;;;;;;30.23;14.50;;;;;;;3.84;74.75;102377.00;1773494;80;26282;-57
2020/12/18 03:02:48;;;;;;;29.20;14.35;;;;;;;3.75;74.79;102375.53;1775139;80;27377;-57
2020/12/18 03:05:16;;;;;;;28.30;14.18;;;;;;;3.72;75.23;102373.83;1774866;80;26563;-57
2020/12/18 03:08:11;;;;;;;24.25;12.85;;;;;;;3.80;75.58;102374.05;1842310;77;26162;-56
2020/12/18 03:10:40;;;;;;;28.98;13.45;;;;;;;3.79;75.79;102382.48;1813798;78;26088;-55
2020/12/18 03:13:08;;;;;;;26.57;14.00;;;;;;;3.83;75.90;102379.25;1808587;79;28574;-58
2020/12/18 03:15:35;;;;;;;27.20;12.75;;;;;;;3.87;75.57;102376.42;1804492;79;26563;-58
2020/12/18 03:18:05;;;;;;;20.50;11.05;;;;;;;3.89;75.51;102383.91;1792817;78;25707;-57
2020/12/18 03:20:35;;;;;;;24.70;11.83;;;;;;;3.92;74.79;102384.25;1762325;80;25754;-58
2020/12/18 03:23:21;;;;;;;25.27;12.78;;;;;;;3.88;73.76;102378.64;1746778;82;25679;-57
2020/12/18 03:25:59;;;;;;;25.27;12.40;;;;;;;3.96;74.62;102373.92;1835550;78;25617;-55
2020/12/18 03:28:44;;;;;;;20.75;11.20;;;;;;;3.92;74.25;102374.94;1789078;79;25792;-56
2020/12/18 03:31:12;;;;;;;24.10;12.33;;;;;;;3.93;74.24;102378.01;1797022;79;28433;-55
2020/12/18 03:33:42;;;;;;;20.55;10.95;;;;;;;3.92;73.48;102384.25;1813579;79;25667;-56
2020/12/18 03:36:25;;;;;;;26.47;13.40;;;;;;;3.93;74.06;102375.83;1819696;78;25345;-58
2020/12/18 03:38:55;;;;;;;26.42;13.48;;;;;;;3.93;74.06;102375.83;1774208;79;25659;-57
2020/12/18 03:41:25;;;;;;;27.30;13.32;;;;;;;3.96;73.74;102367.70;1773053;78;27479;-58
2020/12/18 03:43:54;;;;;;;24.52;12.58;;;;;;;3.98;73.84;102372.52;1773942;79;25762;-58
2020/12/18 03:46:22;;;;;;;22.98;12.73;;;;;;;4.01;73.79;102373.28;1773871;79;25667;-57
2020/12/18 03:49:06;;;;;;;23.85;12.35;;;;;;;4.06;72.25;102371.79;1805532;78;25680;-55
2020/12/18 03:51:39;;;;;;;22.52;11.95;;;;;;;3.95;71.44;102371.29;1777482;79;26606;-57
2020/12/18 03:54:07;;;;;;;22.13;11.30;;;;;;;3.86;71.52;102373.83;1805616;79;28566;-58
2020/12/18 03:56:58;;;;;;;23.42;11.63;;;;;;;3.82;70.94;102370.41;1813706;78;25552;-57
2020/12/18 03:59:37;;;;;;;26.30;11.28;;;;;;;3.72;71.26;102371.16;1770601;79;26126;-58
2020/12/18 04:02:20;;;;;;;23.90;11.10;;;;;;;3.63;70.04;102380.78;1829390;78;25674;-58
2020/12/18 04:04:49;;;;;;;27.45;11.48;;;;;;;3.63;70.04;102380.78;1813654;79;26066;-57
2020/12/18 04:07:17;;;;;;;24.00;12.23;;;;;;;3.58;70.24;102370.77;1790790;79;27515;-57
2020/12/18 04:09:46;;;;;;;26.48;11.95;;;;;;;3.58;71.20;102381.41;1781701;79;26064;-57
2020/12/18 04:12:16;;;;;;;19.95;10.78;;;;;;;3.59;71.22;102381.83;1787947;79;25702;-58
2020/12/18 04:14:47;;;;;;;25.68;11.73;;;;;;;3.64;71.55;102380.34;1786164;79;25867;-55
2020/12/18 04:17:17;;;;;;;20.55;10.80;;;;;;;3.65;70.87;102383.42;1806381;78;25721;-57
2020/12/18 04:19:48;;;;;;;24.60;11.48;;;;;;;3.65;71.28;102384.75;1782769;79;28465;-58
2020/12/18 04:22:15;;;;;;;23.52;11.20;;;;;;;3.67;71.62;102380.25;1805610;79;25689;-55
2020/12/18 04:25:03;;;;;;;29.65;12.78;;;;;;;3.75;71.59;102378.20;1833220;78;25627;-55
2020/12/18 04:27:33;;;;;;;22.90;12.65;;;;;;;3.74;71.80;102379.97;1816365;78;25737;-55
2020/12/18 04:30:02;;;;;;;24.27;12.58;;;;;;;3.79;71.59;102382.48;1805657;79;27499;-55
2020/12/18 04:32:31;;;;;;;22.35;12.20;;;;;;;3.82;71.35;102386.82;1802960;79;25713;-55
2020/12/18 04:34:59;;;;;;;27.52;13.48;;;;;;;3.80;70.63;102386.03;1774359;79;25733;-56
2020/12/18 04:37:38;;;;;;;24.80;12.75;;;;;;;3.76;70.96;102385.27;1797587;79;25669;-58
2020/12/18 04:40:22;;;;;;;27.42;13.15;;;;;;;3.74;70.78;102385.77;1780641;79;25442;-57
2020/12/18 04:43:00;;;;;;;24.35;11.95;;;;;;;3.76;71.45;102387.45;1838318;78;25504;-57
2020/12/18 04:45:30;;;;;;;27.50;12.78;;;;;;;3.71;70.88;102394.73;1799354;79;25439;-56
2020/12/18 04:48:03;;;;;;;23.75;11.80;;;;;;;3.70;71.05;102395.66;1781084;80;27535;-57
2020/12/18 04:50:32;;;;;;;27.27;11.70;;;;;;;3.68;70.79;102395.27;1781378;80;25645;-58
2020/12/18 04:53:25;;;;;;;30.15;14.23;;;;;;;3.65;70.96;102392.73;1784350;79;25997;-57
2020/12/18 04:56:22;;;;;;;30.25;14.93;;;;;;;3.69;70.57;102392.58;1809037;78;34731;-57
2020/12/18 04:58:56;;;;;;;25.92;11.97;;;;;;;3.68;70.11;102399.27;1810552;79;25578;-56
2020/12/18 05:01:26;;;;;;;26.42;11.80;;;;;;;3.67;70.27;102405.53;1798001;79;27711;-56
2020/12/18 05:03:58;;;;;;;29.02;11.65;;;;;;;3.65;69.74;102398.91;1793991;79;25735;-56
2020/12/18 05:06:28;;;;;;;27.65;12.05;;;;;;;3.64;70.02;102402.97;1821769;77;25624;-56
2020/12/18 05:08:56;;;;;;;28.57;13.53;;;;;;;3.60;69.64;102405.72;1808843;77;25869;-57
2020/12/18 05:11:27;;;;;;;24.57;12.40;;;;;;;3.60;70.04;102411.04;1841403;77;26138;-57
2020/12/18 05:14:05;;;;;;;28.67;13.28;;;;;;;3.66;70.49;102403.80;1833170;78;25505;-57
2020/12/18 05:16:35;;;;;;;23.07;11.63;;;;;;;3.66;70.49;102403.80;1804223;79;25728;-57
2020/12/18 05:19:06;;;;;;;24.05;11.65;;;;;;;3.73;71.14;102401.33;1805531;79;27797;-57
2020/12/18 05:21:54;;;;;;;24.20;11.30;;;;;;;3.82;71.10;102405.45;1805570;79;25728;-57
2020/12/18 05:24:26;;;;;;;24.87;12.28;;;;;;;3.85;70.48;102405.36;1801716;79;25633;-57
2020/12/18 05:26:55;;;;;;;23.35;11.30;;;;;;;3.91;69.63;102399.81;1762066;79;25779;-57
2020/12/18 05:29:23;;;;;;;32.20;14.70;;;;;;;3.92;70.18;102405.55;1805580;79;25658;-57
2020/12/18 05:32:13;;;;;;;26.93;13.43;;;;;;;3.93;70.39;102409.11;1802088;79;29067;-57
2020/12/18 05:34:57;;;;;;;32.40;17.60;;;;;;;3.99;70.59;102404.41;1838333;78;25636;-57
2020/12/18 05:37:39;;;;;;;29.55;15.78;;;;;;;3.95;69.75;102408.56;1811574;79;25501;-58
2020/12/18 05:40:08;;;;;;;33.80;15.58;;;;;;;3.90;69.71;102405.62;1809092;79;27816;-57
2020/12/18 05:42:52;;;;;;;33.55;15.30;;;;;;;3.93;69.61;102411.30;1831570;78;25625;-55
2020/12/18 05:45:22;;;;;;;37.40;17.07;;;;;;;3.85;69.61;102415.57;1734333;82;25650;-55
2020/12/18 05:48:03;;;;;;;37.73;17.07;;;;;;;3.86;69.61;102417.28;1735445;82;27798;-57
2020/12/18 05:50:49;;;;;;;37.70;16.37;;;;;;;3.82;69.54;102417.44;1731247;82;26314;-57
2020/12/18 05:53:18;;;;;;;33.35;16.23;;;;;;;3.79;69.74;102413.09;1711411;83;25771;-57
2020/12/18 05:56:02;;;;;;;39.13;16.85;;;;;;;3.80;70.15;102413.50;1833399;78;25518;-58
2020/12/18 05:58:39;;;;;;;33.50;18.20;;;;;;;3.72;70.37;102414.22;1805449;79;25752;-57
2020/12/18 06:01:15;;;;;;;43.25;19.02;;;;;;;3.69;70.52;102420.97;1804451;79;27542;-57
2020/12/18 06:04:09;;;;;;;42.38;20.97;;;;;;;3.68;70.63;102427.20;1805543;79;25724;-58
2020/12/18 06:06:43;;;;;;;41.73;20.70;;;;;;;3.67;70.92;102426.36;1805592;79;25480;-58
2020/12/18 06:09:14;;;;;;;50.95;22.85;;;;;;;3.64;71.06;102431.77;1805794;79;25645;-57
2020/12/18 06:11:43;;;;;;;44.10;22.07;;;;;;;3.64;71.19;102436.23;1805575;79;26150;-59
2020/12/18 06:14:16;;;;;;;43.05;20.12;;;;;;;3.64;71.29;102440.23;1805646;79;28570;-58
2020/12/18 06:16:50;;;;;;;39.45;19.70;;;;;;;3.63;71.49;102444.66;1800426;79;25661;-57
2020/12/18 06:19:21;;;;;;;40.10;17.32;;;;;;;3.63;71.67;102447.32;1824272;78;32549;-57
2020/12/18 06:21:57;;;;;;;35.05;16.20;;;;;;;3.63;71.78;102453.97;1757193;81;25740;-57
2020/12/18 06:24:41;;;;;;;30.65;16.10;;;;;;;3.64;71.83;102457.05;1779749;80;25863;-57
2020/12/18 06:27:16;;;;;;;27.13;14.90;;;;;;;3.66;71.78;102461.02;1724899;83;27733;-57
2020/12/18 06:29:54;;;;;;;29.92;13.72;;;;;;;3.72;72.02;102460.81;1838420;78;25324;-57
2020/12/18 06:32:46;;;;;;;25.15;11.60;;;;;;;3.70;72.26;102462.20;1813572;79;25668;-57
2020/12/18 06:35:35;;;;;;;27.48;13.55;;;;;;;3.74;72.57;102473.61;1813633;79;27521;-57
2020/12/18 06:38:20;;;;;;;28.17;13.10;;;;;;;3.76;72.79;102469.97;1813556;79;25717;-56
2020/12/18 06:41:23;;;;;;;22.87;11.93;;;;;;;3.80;72.92;102467.22;1804161;79;25598;-56
2020/12/18 06:44:01;;;;;;;21.82;11.45;;;;;;;3.90;73.09;102467.30;1832817;78;25569;-57
2020/12/18 06:46:31;;;;;;;20.82;11.10;;;;;;;3.90;73.29;102467.30;1774862;80;25667;-56
2020/12/18 06:49:16;;;;;;;23.55;12.13;;;;;;;3.99;73.52;102480.31;1772050;80;27356;-56
2020/12/18 06:52:09;;;;;;;24.40;13.75;;;;;;;4.11;73.28;102474.17;1833136;78;25647;-57
2020/12/18 06:54:57;;;;;;;28.32;14.43;;;;;;;4.10;73.41;102481.75;1800594;79;26288;-57
2020/12/18 06:57:27;;;;;;;26.33;13.60;;;;;;;4.16;73.32;102480.23;1800998;79;27636;-57
2020/12/18 07:00:30;;;;;;;26.73;13.90;;;;;;;4.19;73.31;102483.66;1805622;79;25677;-57
2020/12/18 07:03:00;;;;;;;24.03;12.73;;;;;;;4.25;73.37;102483.91;1803543;79;25665;-56
2020/12/18 07:05:43;;;;;;;26.33;13.35;;;;;;;4.30;73.27;102482.42;1786024;79;25725;-56
2020/12/18 07:08:13;;;;;;;26.57;13.25;;;;;;;4.32;72.98;102488.54;1785843;79;26178;-57
2020/12/18 07:10:46;;;;;;;22.95;12.07;;;;;;;4.26;72.60;102490.09;1800133;79;27597;-57
2020/12/18 07:13:18;;;;;;;27.87;12.28;;;;;;;4.25;72.74;102488.34;1805558;79;25597;-56
2020/12/18 07:15:50;;;;;;;24.32;12.68;;;;;;;4.23;72.79;102494.59;1805628;79;25777;-57
2020/12/18 07:18:30;;;;;;;26.42;14.28;;;;;;;4.19;72.69;102486.77;1805625;79;26239;-56
2020/12/18 07:21:02;;;;;;;25.10;13.10;;;;;;;4.16;72.50;102498.88;1791377;78;25694;-56
2020/12/18 07:23:33;;;;;;;29.52;13.50;;;;;;;4.11;72.52;102495.47;1813255;78;27531;-56
2020/12/18 07:26:03;;;;;;;26.97;13.88;;;;;;;4.08;72.63;102499.98;1787011;79;25736;-56
2020/12/18 07:28:36;;;;;;;25.35;12.60;;;;;;;4.08;72.82;102497.31;1788839;79;25478;-56
2020/12/18 07:31:05;;;;;;;22.58;12.28;;;;;;;4.05;72.62;102496.55;1804107;78;26351;-56
2020/12/18 07:33:33;;;;;;;25.35;12.88;;;;;;;4.01;72.64;102507.77;1808679;79;25658;-57
2020/12/18 07:36:03;;;;;;;24.37;12.58;;;;;;;4.01;72.56;102502.44;1808670;79;27513;-57
2020/12/18 07:38:33;;;;;;;27.45;12.30;;;;;;;4.02;72.67;102498.00;1800110;79;25642;-56
2020/12/18 07:41:06;;;;;;;34.27;13.50;;;;;;;4.01;72.58;102497.59;1790693;79;25707;-56
2020/12/18 07:43:36;;;;;;;25.43;12.70;;;;;;;4.00;72.50;102503.83;1795320;79;25693;-56
2020/12/18 07:46:08;;;;;;;29.05;13.32;;;;;;;4.03;72.48;102499.75;1773896;79;25730;-56
2020/12/18 07:48:39;;;;;;;26.25;13.75;;;;;;;4.01;72.65;102500.25;1789614;79;27532;-56
2020/12/18 07:51:19;;;;;;;27.05;14.50;;;;;;;4.02;72.73;102494.01;1800530;79;25686;-56
2020/12/18 07:53:53;;;;;;;27.58;14.05;;;;;;;4.01;72.70;102494.45;1794529;79;25687;-57
2020/12/18 07:56:22;;;;;;;27.52;13.72;;;;;;;4.02;72.63;102498.86;1791948;79;25681;-56
2020/12/18 07:59:07;;;;;;;27.90;14.75;;;;;;;4.04;72.68;102496.13;1786717;79;25696;-56
2020/12/18 08:01:38;;;;;;;33.65;14.30;;;;;;;4.05;72.71;102497.44;1792584;79;27528;-57
2020/12/18 08:04:12;;;;;;;26.90;14.55;;;;;;;4.06;72.55;102493.85;1762761;79;25660;-58
2020/12/18 08:06:42;;;;;;;28.92;14.80;;;;;;;4.11;72.67;102496.36;1763002;79;25645;-55
2020/12/18 08:12:10;;;;;;;26.77;13.13;;;;;;;4.25;72.91;102493.23;1825954;78;25622;-55
2020/12/18 08:14:38;;;;;;;32.40;13.50;;;;;;;4.22;73.14;102494.66;1811647;78;26088;-57
2020/12/18 08:17:05;;;;;;;30.32;16.20;;;;;;;4.25;73.22;102490.56;1810919;78;27581;-58
2020/12/18 08:19:34;;;;;;;34.27;19.32;;;;;;;4.32;73.50;102493.42;1776494;79;26296;-57
2020/12/18 08:22:03;;;;;;;32.33;17.57;;;;;;;4.40;73.45;102491.80;1768162;80;25693;-58
2020/12/18 08:24:35;;;;;;;31.25;17.00;;;;;;;4.47;73.15;102497.80;1720763;80;25719;-58
2020/12/18 08:27:17;;;;;;;31.75;16.37;;;;;;;4.51;73.16;102500.78;1722674;81;25695;-57
2020/12/18 08:29:46;;;;;;;32.05;16.27;;;;;;;4.54;72.08;102496.65;1740253;82;27537;-57
2020/12/18 08:32:18;;;;;;;28.17;14.85;;;;;;;4.61;72.65;102493.31;1743833;80;25730;-57
2020/12/18 08:34:50;;;;;;;38.15;19.60;;;;;;;4.64;72.24;102496.73;1753244;80;25702;-57
2020/12/18 08:37:22;;;;;;;43.40;21.45;;;;;;;4.68;72.47;102490.38;1740257;81;25779;-57
2020/12/18 08:39:50;;;;;;;39.18;20.35;;;;;;;4.77;72.51;102489.64;1738745;81;25662;-57
2020/12/18 08:42:18;;;;;;;28.15;15.95;;;;;;;4.84;72.33;102489.33;1752966;81;27551;-57
2020/12/18 08:44:47;;;;;;;27.50;16.00;;;;;;;4.89;71.76;102486.50;1755844;81;25689;-57
2020/12/18 08:47:28;;;;;;;31.80;16.97;;;;;;;4.90;70.96;102489.58;1748383;81;25728;-57
2020/12/18 08:49:58;;;;;;;33.83;17.37;;;;;;;4.86;70.66;102486.63;1767245;81;26280;-57
2020/12/18 08:52:30;;;;;;;35.17;18.77;;;;;;;4.86;70.53;102485.30;1762965;81;25682;-58
2020/12/18 08:55:05;;;;;;;31.12;15.85;;;;;;;4.87;70.06;102480.38;1761378;81;28444;-58
2020/12/18 08:57:39;;;;;;;34.25;16.37;;;;;;;4.79;69.95;102477.13;1760656;81;25703;-58
2020/12/18 09:00:16;;;;;;;33.78;16.97;;;;;;;4.76;69.45;102482.08;1761134;81;34920;-57
2020/12/18 09:02:57;;;;;;;30.05;15.38;;;;;;;4.76;69.73;102487.89;1750275;81;26180;-57
2020/12/18 09:05:32;;;;;;;32.23;17.10;;;;;;;4.77;69.82;102485.16;1742287;81;25691;-57
2020/12/18 09:10:56;;;;;;;34.67;17.15;;;;;;;4.79;69.35;102479.31;1831719;78;25316;-55
2020/12/18 09:13:31;;;;;;;39.35;18.60;;;;;;;4.72;69.20;102483.58;1777091;79;26079;-58
2020/12/18 09:16:07;;;;;;;35.78;19.65;;;;;;;4.69;69.27;102480.13;1799115;79;28583;-58
2020/12/18 09:18:46;;;;;;;38.78;19.73;;;;;;;4.69;69.35;102482.80;1773542;80;26306;-58
2020/12/18 09:21:16;;;;;;;31.62;16.95;;;;;;;4.70;69.40;102471.66;1789264;79;25655;-58
2020/12/18 09:23:46;;;;;;;32.80;17.15;;;;;;;4.70;69.36;102473.87;1805641;79;25690;-58
2020/12/18 09:26:24;;;;;;;35.15;18.23;;;;;;;4.73;69.33;102473.33;1798338;79;25721;-58
2020/12/18 09:28:53;;;;;;;33.63;17.02;;;;;;;4.75;69.19;102468.81;1783078;79;27528;-57
2020/12/18 09:31:23;;;;;;;34.18;17.32;;;;;;;4.75;69.07;102471.48;1787402;79;25726;-58
2020/12/18 09:33:52;;;;;;;30.90;15.60;;;;;;;4.74;68.74;102467.08;1805491;79;26117;-57
2020/12/18 09:36:20;;;;;;;31.60;15.93;;;;;;;4.72;68.71;102463.14;1784381;79;26200;-58
2020/12/18 09:38:54;;;;;;;33.45;15.58;;;;;;;4.73;68.08;102465.33;1743736;80;26477;-58
2020/12/18 09:41:24;;;;;;;32.93;15.68;;;;;;;4.70;67.98;102458.32;1784957;79;27530;-56
2020/12/18 09:43:52;;;;;;;28.10;15.32;;;;;;;4.70;68.60;102463.21;1788138;79;25874;-57
2020/12/18 09:46:23;;;;;;;31.65;15.35;;;;;;;4.73;68.69;102463.55;1792426;79;25650;-58
2020/12/18 09:48:51;;;;;;;27.45;14.47;;;;;;;4.76;68.65;102467.42;1780173;79;26556;-57
2020/12/18 09:51:19;;;;;;;28.23;14.65;;;;;;;4.78;68.84;102468.72;1802905;79;25621;-58
2020/12/18 09:53:48;;;;;;;30.45;14.98;;;;;;;4.81;68.37;102469.47;1798690;79;27524;-58
2020/12/18 09:56:17;;;;;;;29.50;13.93;;;;;;;4.78;67.28;102462.91;1799538;78;25678;-58
2020/12/18 09:58:45;;;;;;;30.23;14.45;;;;;;;4.78;67.20;102463.38;1732619;80;25493;-58
2020/12/18 10:01:20;;;;;;;28.02;13.32;;;;;;;4.77;67.77;102461.64;1746184;82;25657;-58
2020/12/18 10:03:50;;;;;;;32.10;13.58;;;;;;;4.79;68.01;102465.98;1736334;82;25650;-58
2020/12/18 10:06:26;;;;;;;28.57;15.00;;;;;;;4.82;67.82;102464.99;1711318;83;26665;-57
2020/12/18 10:08:55;;;;;;;29.45;15.35;;;;;;;4.85;68.24;102465.74;1710951;83;25683;-58
2020/12/18 10:11:29;;;;;;;36.85;17.67;;;;;;;4.92;67.94;102462.39;1744570;82;25710;-58
2020/12/18 10:13:57;;;;;;;32.70;16.07;;;;;;;4.95;68.44;102467.63;1749515;81;25646;-58
2020/12/18 10:16:25;;;;;;;39.18;17.00;;;;;;;4.99;67.80;102462.56;1780167;79;25563;-58
2020/12/18 10:18:54;;;;;;;39.30;18.62;;;;;;;4.99;67.80;102467.89;1772674;78;26983;-56
2020/12/18 10:21:21;;;;;;;36.90;17.32;;;;;;;5.02;66.73;102468.23;1793097;79;26039;-56
2020/12/18 10:23:49;;;;;;;33.05;15.53;;;;;;;4.97;66.97;102471.55;1794026;79;25646;-56
2020/12/18 10:26:19;;;;;;;30.48;15.28;;;;;;;4.90;66.88;102467.38;1794071;79;25682;-56
2020/12/18 10:28:47;;;;;;;31.95;15.98;;;;;;;4.84;66.96;102468.00;1793950;79;25825;-56
2020/12/18 10:31:15;;;;;;;38.40;16.55;;;;;;;4.81;67.22;102463.25;1793874;79;27634;-55
2020/12/18 10:33:43;;;;;;;30.80;14.63;;;;;;;4.78;67.05;102463.38;1793808;79;25458;-55
2020/12/18 10:36:12;;;;;;;37.10;15.68;;;;;;;4.73;66.80;102460.89;1793843;79;25671;-56
2020/12/18 10:38:39;;;;;;;25.57;14.70;;;;;;;4.67;67.00;102456.64;1793836;79;25654;-57
2020/12/18 10:41:09;;;;;;;30.45;16.32;;;;;;;4.63;67.29;102462.14;1778767;78;25717;-55
2020/12/18 10:43:37;;;;;;;34.92;16.45;;;;;;;4.60;67.32;102459.13;1721757;81;27528;-56
2020/12/18 10:46:05;;;;;;;35.45;16.90;;;;;;;4.58;67.69;102461.42;1829746;78;25637;-56
2020/12/18 10:48:33;;;;;;;29.48;15.15;;;;;;;4.55;67.97;102454.41;1829757;78;25659;-55
2020/12/18 10:51:01;;;;;;;36.93;18.35;;;;;;;4.56;68.27;102458.83;1728063;81;26183;-56
2020/12/18 10:53:29;;;;;;;30.35;14.87;;;;;;;4.56;68.26;102457.97;1711552;82;25743;-57
2020/12/18 10:55:57;;;;;;;34.60;15.85;;;;;;;4.56;68.33;102456.16;1710819;83;27519;-56
2020/12/18 10:58:26;;;;;;;34.73;18.15;;;;;;;4.56;68.42;102450.83;1710665;83;26234;-55
2020/12/18 11:00:53;;;;;;;38.53;19.50;;;;;;;4.53;68.15;102449.59;1758582;80;25670;-55
2020/12/18 11:03:21;;;;;;;39.80;17.50;;;;;;;4.50;68.39;102456.39;1738182;82;25712;-56
2020/12/18 11:05:49;;;;;;;39.15;17.35;;;;;;;4.49;68.49;102459.50;1755244;81;26145;-56
2020/12/18 11:08:17;;;;;;;40.28;17.75;;;;;;;4.47;68.52;102453.37;1705921;82;27446;-56
2020/12/18 11:10:45;;;;;;;38.60;18.37;;;;;;;4.46;68.58;102460.08;1770004;80;26071;-56
2020/12/18 11:13:13;;;;;;;39.80;19.57;;;;;;;4.48;68.76;102456.90;1773518;80;25774;-56
2020/12/18 11:15:43;;;;;;;43.28;18.57;;;;;;;4.50;68.90;102460.39;1794303;78;26174;-55
2020/12/18 11:18:10;;;;;;;44.73;21.55;;;;;;;4.53;69.07;102456.26;1799695;79;25623;-54
2020/12/18 11:20:39;;;;;;;42.48;20.30;;;;;;;4.58;69.31;102458.31;1799812;79;26805;-56
2020/12/18 11:23:07;;;;;;;38.83;19.50;;;;;;;4.60;69.23;102459.13;1799646;79;25688;-54
2020/12/18 11:25:34;;;;;;;41.63;19.62;;;;;;;4.65;69.37;102464.30;1799769;79;25615;-55
2020/12/18 11:28:02;;;;;;;37.78;18.25;;;;;;;4.68;69.48;102454.39;1799945;79;25682;-55
2020/12/18 11:30:30;;;;;;;37.50;18.90;;;;;;;4.72;69.32;102455.59;1799593;79;25742;-56
2020/12/18 11:32:58;;;;;;;34.55;18.92;;;;;;;4.78;69.44;102456.72;1799663;79;28398;-54
2020/12/18 11:35:26;;;;;;;40.10;17.55;;;;;;;4.83;69.54;102460.07;1799744;79;25631;-55
2020/12/18 11:37:54;;;;;;;40.73;18.30;;;;;;;4.87;69.24;102463.04;1799670;79;25433;-56
2020/12/18 11:40:23;;;;;;;38.05;18.48;;;;;;;4.92;68.98;102468.20;1799159;79;26503;-55
2020/12/18 11:42:51;;;;;;;37.33;18.12;;;;;;;4.94;68.96;102461.88;1729595;82;25456;-56
2020/12/18 11:45:20;;;;;;;38.30;18.30;;;;;;;4.95;68.41;102468.06;1729806;82;27524;-56
2020/12/18 11:47:48;;;;;;;34.48;16.35;;;;;;;4.96;68.52;102465.81;1729708;82;26184;-56